Currently 56°F in San Jacinto, California, USA
56°F
60°F / 49°F
4 mph S
0.00"
Thursday, December 3, 2020 8:28 AM PST

San Jacinto, California Weather Summary
Last 36 Hours

Temperature Winds Hourly Humidity Dewpoint
Time Report Norm Report Norm Max Gusts Precip. Rpt. Norm Rpt. Norm Pressure
1Thu 08:28 AM  56.3°F  50°F  4 mph S  1 mph  6 mph  0.00"  16%  64%  9°F  38°F  30.25"
Thu 08:00 AM  53.4°F  47°F  1 mph SW  1 mph  9 mph  0.00"  18%  68%  9°F  37°F  30.24"
Thu 07:00 AM  48.9°F  44°F  calm  1 mph  7 mph  0.00"  22%  72%  10°F  35°F  30.23"
3Thu 06:32 AM  48.7°F  44°F  calm  1 mph  7 mph  ----  21%  72%  9°F  35°F  30.22"
Thu 06:00 AM  50.9°F  44°F  4 mph S  1 mph  18 mph  0.00"  21%  72%  11°F  35°F  30.21"
Thu 05:00 AM  55.9°F  44°F  calm  1 mph  20 mph  0.00"  15%  71%  7°F  35°F  30.19"
Thu 04:00 AM  54.1°F  45°F  2 mph S  1 mph  20 mph  0.00"  18%  70%  10°F  36°F  30.18"
Thu 03:00 AM  58.3°F  46°F  1 mph SE  calm  28 mph  0.00"  13%  69%  5°F  36°F  30.17"
Thu 02:00 AM  58.8°F  47°F  2 mph NE  1 mph  36 mph  0.00"  11%  67%  2°F  36°F  30.16"
Thu 01:00 AM  59.4°F  47°F  10 mph NE  1 mph  43 mph  0.00"  12%  66%  4°F  36°F  30.15"
2Thu 12:02 AM  59.7°F  48°F  13 mph NE  1 mph  45 mph  ----  13%  64%  6°F  36°F  30.14"
Thu 12:00 AM  59.5°F  48°F  15 mph E  1 mph  41 mph  0.00"  13%  64%  6°F  36°F  30.14"
Wed 11:00 PM  60.6°F  49°F  2 mph N  1 mph  33 mph  0.00"  13%  63%  7°F  37°F  30.16"
Wed 10:00 PM  61.9°F  50°F  calm  1 mph  15 mph  0.00"  12%  61%  6°F  37°F  30.16"
Wed 09:00 PM  62.2°F  52°F  3 mph E  1 mph  31 mph  0.00"  13%  59%  8°F  37°F  30.15"
Wed 08:00 PM  63.3°F  53°F  9 mph NE  1 mph  30 mph  0.00"  13%  57%  9°F  38°F  30.13"
Wed 07:00 PM  60.8°F  55°F  calm  2 mph  3 mph  0.00"  17%  54%  14°F  38°F  30.11"
Wed 06:00 PM  63.0°F  57°F  calm  2 mph  3 mph  0.00"  17%  51%  16°F  38°F  30.09"
Wed 05:00 PM  68.2°F  60°F  calm  2 mph  10 mph  0.00"  12%  46%  11°F  38°F  30.06"
Wed 04:00 PM  71.2°F  63°F  1 mph NE  2 mph  13 mph  0.00"  11%  40%  12°F  38°F  30.05"
Wed 03:00 PM  72.7°F  65°F  1 mph NE  3 mph  10 mph  0.00"  12%  38%  15°F  38°F  30.05"
Wed 02:00 PM  74.7°F  65°F  1 mph NE  3 mph  7 mph  0.00"  11%  37%  14°F  38°F  30.05"
Wed 01:00 PM  75.6°F  65°F  1 mph NE  3 mph  5 mph  0.00"  11%  37%  15°F  37°F  30.06"
Wed 12:00 PM  73.8°F  63°F  calm  2 mph  3 mph  0.00"  12%  40%  16°F  37°F  30.07"
Wed 11:00 AM  72.3°F  61°F  calm  2 mph  3 mph  0.00"  14%  45%  18°F  38°F  30.09"
Wed 10:00 AM  65.1°F  57°F  calm  1 mph  3 mph  0.00"  18%  52%  19°F  39°F  30.13"
Wed 09:00 AM  55.8°F  52°F  calm  1 mph  1 mph  0.00"  28%  60%  22°F  38°F  30.13"
Wed 08:00 AM  45.9°F  47°F  calm  1 mph  none  0.00"  40%  68%  22°F  37°F  30.13"
Wed 07:00 AM  38.7°F  44°F  calm  1 mph  1 mph  0.00"  45%  72%  18°F  35°F  30.11"
Wed 06:00 AM  40.6°F  44°F  calm  1 mph  3 mph  0.00"  41%  72%  18°F  35°F  30.08"
Wed 05:01 AM  40.5°F  44°F  calm  1 mph  none  0.00"  43%  71%  19°F  35°F  30.07"
Wed 04:00 AM  44.1°F  45°F  calm  1 mph  3 mph  0.00"  36%  70%  18°F  35°F  30.07"
Wed 03:00 AM  46.8°F  46°F  calm  1 mph  none  0.00"  34%  69%  19°F  35°F  30.08"
Wed 02:00 AM  44.6°F  46°F  calm  1 mph  none  0.00"  37%  67%  19°F  36°F  30.09"
Wed 01:00 AM  47.1°F  47°F  calm  1 mph  none  0.00"  31%  66%  17°F  36°F  30.10"
Wed 12:00 AM  47.7°F  48°F  calm  1 mph  none  0.00"  32%  64%  18°F  36°F  30.09"
Tue 11:00 PM  50.4°F  49°F  calm  1 mph  none  0.00"  29%  62%  18°F  36°F  30.09"
Tue 10:00 PM  51.6°F  50°F  calm  1 mph  none  0.00"  28%  60%  18°F  36°F  30.09"
Tue 09:00 PM  54.3°F  52°F  calm  2 mph  2 mph  0.00"  24%  58%  17°F  37°F  30.08"

  1. Current weather data. No green row appears if the current weather data is also the high or low for the current day.
  2. High temperature for the current day.
  3. Low temperature for the current day.

The San Jacinto, California weather pages are a service of WeatherCurrents. San Jacinto is located in the heart of the San Jacinto Valley, near Hemet, the Soboba Casino, and at the foot of the San Jacinto Mountains.
Copyright ©2020  WeatherCurrents. All rights reserved. - Submit questions and comments - Privacy Policy

This page automatically refreshes every 10 minutes.